Time;durP1;ratioP1;P1;durP2;ratioP2;P2;SDS_P1;SDS_P2;PMS_P1;PMS_P2;Temp;Humidity;BMP_temperature;BMP_pressure;BME280_temperature;BME280_humidity;BME280_pressure;Samples;Min_cycle;Max_cycle;Signal;HPM_P1;HPM_P2
2023/01/02 00:01:44;;;;;;;;;;;;;;;28.04;48.55;101320.28;5053265;28;66643;-33
2023/01/02 00:04:15;;;;;;;;;;;;;;;28.06;48.50;101327.16;5051298;28;69864;-33
2023/01/02 00:06:46;;;;;;;;;;;;;;;28.10;48.46;101330.31;5051745;28;66954;-33
2023/01/02 00:09:17;;;;;;;;;;;;;;;28.09;48.81;101336.75;5051832;28;69736;-33
2023/01/02 00:11:48;;;;;;;;;;;;;;;28.10;49.73;101340.28;5056426;28;65902;-34
2023/01/02 00:14:19;;;;;;;;;;;;;;;28.13;50.13;101342.59;5054503;28;70392;-34
2023/01/02 00:16:49;;;;;;;;;;;;;;;28.14;50.32;101358.59;5052337;28;66249;-33
2023/01/02 00:19:20;;;;;;;;;;;;;;;28.16;50.27;101355.69;5055427;28;70469;-33
2023/01/02 00:21:51;;;;;;;;;;;;;;;28.17;50.27;101362.78;5047024;28;66556;-33
2023/01/02 00:24:21;;;;;;;;;;;;;;;28.17;50.55;101370.88;5051020;28;70359;-33
2023/01/02 00:26:53;;;;;;;;;;;;;;;28.19;50.38;101376.88;5048600;28;65245;-34
2023/01/02 00:29:23;;;;;;;;;;;;;;;28.19;50.87;101377.72;5058239;28;70281;-34
2023/01/02 00:31:54;;;;;;;;;;;;;;;28.23;51.13;101383.59;5050513;28;66793;-32
2023/01/02 00:34:25;;;;;;;;;;;;;;;28.22;52.32;101381.91;5059164;28;69858;-32
2023/01/02 00:36:56;;;;;;;;;;;;;;;28.26;52.04;101385.91;5049086;28;65718;-33
2023/01/02 00:39:28;;;;;;;;;;;;;;;28.28;51.97;101391.94;5058375;28;70651;-34
2023/01/02 00:41:58;;;;;;;;;;;;;;;28.29;52.08;101390.91;5054809;28;65957;-34
2023/01/02 00:44:31;;;;;;;;;;;;;;;28.27;52.23;101390.25;5064282;27;42868;-34
2023/01/02 00:47:01;;;;;;;;;;;;;;;27.95;52.57;101351.94;5053555;28;65944;-34
2023/01/02 00:49:32;;;;;;;;;;;;;;;28.29;52.23;101404.41;5059860;28;69175;-33
2023/01/02 00:52:03;;;;;;;;;;;;;;;28.30;52.54;101411.44;5059524;28;66478;-34
2023/01/02 00:54:33;;;;;;;;;;;;;;;28.29;52.61;101401.69;5055463;28;69387;-33
2023/01/02 00:57:05;;;;;;;;;;;;;;;28.29;52.45;101393.59;5058997;28;66521;-33
2023/01/02 00:59:35;;;;;;;;;;;;;;;28.31;52.91;101404.22;5059742;28;69233;-34
2023/01/02 01:02:07;;;;;;;;;;;;;;;28.32;53.25;101412.09;5061475;28;66603;-34
2023/01/02 01:04:37;;;;;;;;;;;;;;;28.34;54.88;101415.47;5056861;28;69934;-33
2023/01/02 01:07:08;;;;;;;;;;;;;;;28.39;56.04;101425.66;5051017;28;67156;-33
2023/01/02 01:09:39;;;;;;;;;;;;;;;28.40;56.37;101422.78;5051666;28;70344;-34
2023/01/02 01:12:10;;;;;;;;;;;;;;;28.42;57.09;101418.06;5039972;28;66001;-34
2023/01/02 01:14:40;;;;;;;;;;;;;;;28.41;57.10;101427.16;5055033;28;69359;-34
2023/01/02 01:17:11;;;;;;;;;;;;;;;28.41;57.67;101429.84;5058123;28;66156;-34
2023/01/02 01:19:42;;;;;;;;;;;;;;;28.33;58.44;101429.13;5054858;28;69186;-34
2023/01/02 01:22:12;;;;;;;;;;;;;;;28.20;58.37;101432.53;5052415;28;65865;-34
2023/01/02 01:24:44;;;;;;;;;;;;;;;28.13;59.39;101434.28;5051889;28;70747;-37
2023/01/02 01:27:14;;;;;;;;;;;;;;;28.07;59.29;101436.72;5052853;28;66691;-36
2023/01/02 01:29:45;;;;;;;;;;;;;;;28.00;59.49;101434.94;5056820;27;70919;-35
2023/01/02 01:32:16;;;;;;;;;;;;;;;27.97;60.11;101446.97;5049327;28;65984;-38
2023/01/02 01:34:47;;;;;;;;;;;;;;;27.92;60.21;101444.00;5050875;28;69314;-35
2023/01/02 01:37:18;;;;;;;;;;;;;;;27.88;61.00;101450.75;5052921;28;66979;-39
2023/01/02 01:39:48;;;;;;;;;;;;;;;27.91;60.53;101453.09;5052435;28;69481;-35
2023/01/02 01:42:24;;;;;;;;;;;;;;;27.78;61.14;101437.56;5047901;28;66929;-34
2023/01/02 01:44:56;;;;;;;;;;;;;;;27.88;60.61;101439.16;5020522;28;68782;-38
2023/01/02 01:47:35;;;;;;;;;;;;;;;28.05;60.41;101452.25;5054602;28;65417;-36
2023/01/02 01:50:11;;;;;;;;;;;;;;;28.11;60.55;101455.22;5052262;28;70504;-35
2023/01/02 01:52:54;;;;;;;;;;;;;;;28.18;60.43;101445.34;5056597;28;66087;-35
2023/01/02 01:55:30;;;;;;;;;;;;;;;28.25;60.13;101451.66;5053092;28;69907;-35
2023/01/02 01:58:07;;;;;;;;;;;;;;;28.29;60.04;101440.31;5054744;28;66750;-35
2023/01/02 02:00:39;;;;;;;;;;;;;;;28.33;60.14;101451.53;5067867;27;70080;-34
2023/01/02 02:03:17;;;;;;;;;;;;;;;28.40;60.47;101452.47;5052928;28;65485;-35
2023/01/02 02:05:49;;;;;;;;;;;;;;;28.43;60.79;101451.28;5054851;28;69867;-34
2023/01/02 02:08:19;;;;;;;;;;;;;;;28.49;60.18;101443.25;5052413;28;66205;-34
2023/01/02 02:10:50;;;;;;;;;;;;;;;28.54;60.58;101452.66;5058516;28;69077;-36
2023/01/02 02:13:21;;;;;;;;;;;;;;;28.42;60.18;101449.59;5059168;28;66502;-36
2023/01/02 02:16:06;;;;;;;;;;;;;;;28.45;59.63;101452.78;5059604;28;70546;-35
2023/01/02 02:18:48;;;;;;;;;;;;;;;28.48;59.50;101451.56;5049584;28;66366;-34
2023/01/02 02:21:22;;;;;;;;;;;;;;;28.51;59.04;101451.19;5049324;28;68785;-36
2023/01/02 02:24:03;;;;;;;;;;;;;;;28.56;59.09;101458.72;5054107;28;67059;-34
2023/01/02 02:26:42;;;;;;;;;;;;;;;28.60;59.00;101451.88;5057805;27;69664;-34
2023/01/02 02:29:13;;;;;;;;;;;;;;;28.64;58.83;101453.16;5055962;28;66661;-35
2023/01/02 02:32:02;;;;;;;;;;;;;;;28.65;58.07;101454.84;5048973;28;70743;-34
2023/01/02 02:34:51;;;;;;;;;;;;;;;28.69;58.26;101451.56;5056345;28;65826;-36
2023/01/02 02:37:31;;;;;;;;;;;;;;;28.73;58.11;101458.25;5052983;28;70668;-34
2023/01/02 02:40:04;;;;;;;;;;;;;;;28.77;57.83;101450.59;5049544;28;65409;-34
2023/01/02 02:42:45;;;;;;;;;;;;;;;28.80;58.02;101458.31;5049355;28;69260;-36
2023/01/02 02:45:25;;;;;;;;;;;;;;;28.82;57.58;101450.88;5050912;28;66231;-39
2023/01/02 02:48:14;;;;;;;;;;;;;;;28.85;57.37;101453.19;5035276;28;69034;-34
2023/01/02 02:50:50;;;;;;;;;;;;;;;28.70;57.75;101414.63;5048547;28;66569;-36
2023/01/02 02:53:22;;;;;;;;;;;;;;;28.91;57.52;101449.69;5049572;28;70625;-35
2023/01/02 02:55:54;;;;;;;;;;;;;;;28.95;57.85;101447.47;5057156;28;65212;-35
2023/01/02 02:58:28;;;;;;;;;;;;;;;28.98;57.66;101451.66;5050507;28;69768;-34
2023/01/02 03:01:18;;;;;;;;;;;;;;;29.00;57.46;101452.28;5054048;28;66118;-36
2023/01/02 03:03:56;;;;;;;;;;;;;;;29.03;57.61;101443.78;5056242;28;70731;-36
2023/01/02 03:06:48;;;;;;;;;;;;;;;29.05;57.72;101447.16;5051346;28;65970;-36
2023/01/02 03:09:39;;;;;;;;;;;;;;;29.07;57.98;101442.41;5057846;28;69392;-34
2023/01/02 03:12:24;;;;;;;;;;;;;;;29.10;57.93;101442.84;5055564;28;65699;-35
2023/01/02 03:15:23;;;;;;;;;;;;;;;29.13;57.89;101444.31;5048280;28;70394;-37
2023/01/02 03:17:58;;;;;;;;;;;;;;;29.15;57.96;101428.75;5055714;28;66605;-38
2023/01/02 03:20:34;;;;;;;;;;;;;;;29.19;58.00;101430.03;5057044;28;70817;-34
2023/01/02 03:23:07;;;;;;;;;;;;;;;29.23;58.11;101431.31;5054996;28;67244;-37
2023/01/02 03:25:38;;;;;;;;;;;;;;;29.24;58.22;101432.16;5051749;28;69691;-37
2023/01/02 03:28:09;;;;;;;;;;;;;;;29.27;58.15;101427.19;5055554;28;67487;-38
2023/01/02 03:30:41;;;;;;;;;;;;;;;29.29;58.15;101419.72;5048881;28;68960;-35
2023/01/02 03:33:23;;;;;;;;;;;;;;;29.31;57.69;101412.25;5046729;28;66163;-35
2023/01/02 03:35:56;;;;;;;;;;;;;;;29.34;57.52;101419.97;5051377;28;69153;-35
2023/01/02 03:38:35;;;;;;;;;;;;;;;29.36;57.96;101415.22;5051471;28;66543;-36
2023/01/02 03:41:09;;;;;;;;;;;;;;;29.38;57.68;101413.13;5050517;28;69953;-35
2023/01/02 03:43:40;;;;;;;;;;;;;;;29.41;57.77;101403.78;5050199;28;66012;-33
2023/01/02 03:46:12;;;;;;;;;;;;;;;29.44;57.48;101410.66;5055350;28;70716;-39
2023/01/02 03:49:03;;;;;;;;;;;;;;;29.46;57.60;101403.22;5065506;27;66602;-35
2023/01/02 03:51:34;;;;;;;;;;;;;;;29.48;57.52;101395.75;5052978;28;69784;-37
2023/01/02 03:54:06;;;;;;;;;;;;;;;29.46;58.92;101387.00;5051933;28;65428;-36
2023/01/02 03:56:46;;;;;;;;;;;;;;;29.49;58.95;101392.81;5047745;28;69714;-36
2023/01/02 03:59:17;;;;;;;;;;;;;;;29.51;58.56;101389.94;5048494;28;66366;-37
2023/01/02 04:02:14;;;;;;;;;;;;;;;29.51;59.85;101385.38;5047871;28;69761;-40
2023/01/02 04:04:54;;;;;;;;;;;;;;;29.64;59.17;101384.63;5019870;28;66455;-38
2023/01/02 04:07:37;;;;;;;;;;;;;;;29.66;59.34;101379.84;5053522;28;71088;-37
2023/01/02 04:10:10;;;;;;;;;;;;;;;29.65;59.79;101370.09;5052979;28;66416;-35
2023/01/02 04:12:43;;;;;;;;;;;;;;;29.62;60.29;101375.84;5049971;28;68969;-35
2023/01/02 04:15:16;;;;;;;;;;;;;;;29.60;60.29;101361.69;5050615;28;66752;-35
2023/01/02 04:17:49;;;;;;;;;;;;;;;29.55;59.98;101358.75;5052196;28;70688;-37
2023/01/02 04:20:23;;;;;;;;;;;;;;;29.52;60.54;101362.69;5052488;28;65952;-34
2023/01/02 04:23:03;;;;;;;;;;;;;;;29.50;60.11;101355.81;5035896;28;70172;-35
2023/01/02 04:25:41;;;;;;;;;;;;;;;29.50;60.81;101350.41;5054536;28;66795;-35
2023/01/02 04:28:17;;;;;;;;;;;;;;;29.46;60.96;101354.56;5046804;28;70086;-34
2023/01/02 04:30:53;;;;;;;;;;;;;;;29.48;61.12;101341.69;5053513;28;66008;-35
2023/01/02 04:33:24;;;;;;;;;;;;;;;29.44;60.68;101329.59;5050404;28;70462;-34
2023/01/02 04:35:55;;;;;;;;;;;;;;;29.48;60.94;101329.00;5061332;28;67663;-35
2023/01/02 04:38:26;;;;;;;;;;;;;;;29.47;60.96;101329.19;5051188;28;69447;-35
2023/01/02 04:40:57;;;;;;;;;;;;;;;29.31;60.60;101297.91;5051944;28;67023;-34
2023/01/02 04:43:28;;;;;;;;;;;;;;;29.47;60.87;101321.09;5053252;28;69418;-34
2023/01/02 04:45:59;;;;;;;;;;;;;;;29.47;60.68;101304.88;5054914;28;66658;-37
2023/01/02 04:48:30;;;;;;;;;;;;;;;29.48;60.77;101315.50;5044045;28;68829;-37
2023/01/02 04:51:01;;;;;;;;;;;;;;;29.51;60.91;101306.16;5049559;28;65757;-34
2023/01/02 04:53:31;;;;;;;;;;;;;;;29.50;61.21;101297.19;5049297;28;69028;-35
2023/01/02 04:56:02;;;;;;;;;;;;;;;29.52;61.23;101294.28;5046667;28;66060;-36
2023/01/02 04:58:33;;;;;;;;;;;;;;;29.44;61.73;101280.94;5053699;28;69900;-34
2023/01/02 05:01:07;;;;;;;;;;;;;;;29.46;61.44;101289.69;5054809;28;66673;-38
2023/01/02 05:03:42;;;;;;;;;;;;;;;29.53;60.90;101282.44;5051605;28;70460;-38
2023/01/02 05:06:13;;;;;;;;;;;;;;;29.59;61.01;101273.53;5054027;28;66146;-36
2023/01/02 05:08:44;;;;;;;;;;;;;;;29.66;60.35;101258.19;5053189;28;70340;-35
2023/01/02 05:11:17;;;;;;;;;;;;;;;29.71;60.64;101261.13;5053114;28;65871;-36
2023/01/02 05:13:47;;;;;;;;;;;;;;;29.76;60.37;101252.41;5049476;28;70395;-35
2023/01/02 05:16:18;;;;;;;;;;;;;;;29.81;59.71;101244.50;5054345;28;66687;-37
2023/01/02 05:18:48;;;;;;;;;;;;;;;29.85;59.44;101248.47;5047186;28;70350;-34
2023/01/02 05:24:08;;;;;;;;;;;;;;;29.91;60.59;101233.28;5055062;28;69791;-35
2023/01/02 05:26:39;;;;;;;;;;;;;;;29.93;61.10;101226.63;5049466;28;65665;-35
2023/01/02 05:29:10;;;;;;;;;;;;;;;30.03;59.78;101220.81;5052532;28;70706;-40
2023/01/02 05:31:41;;;;;;;;;;;;;;;30.13;60.13;101218.53;5050211;28;65704;-34
2023/01/02 05:34:15;;;;;;;;;;;;;;;30.13;60.33;101215.84;5052826;28;68995;-35
2023/01/02 05:36:46;;;;;;;;;;;;;;;30.10;60.25;101205.44;5051886;28;66546;-35
2023/01/02 05:39:17;;;;;;;;;;;;;;;30.05;61.04;101202.50;5051701;28;70629;-37
2023/01/02 05:41:47;;;;;;;;;;;;;;;30.09;60.77;101192.09;5051238;28;66893;-36
2023/01/02 05:44:19;;;;;;;;;;;;;;;30.10;60.17;101196.50;5048212;28;69803;-35
2023/01/02 05:46:49;;;;;;;;;;;;;;;30.10;61.04;101183.78;5037370;28;65372;-37
2023/01/02 05:49:20;;;;;;;;;;;;;;;30.10;60.71;101183.78;5052445;28;71191;-35
2023/01/02 05:51:51;;;;;;;;;;;;;;;30.12;61.09;101170.91;5054038;28;66719;-40
2023/01/02 05:54:21;;;;;;;;;;;;;;;30.07;59.80;101173.38;5055116;28;71178;-36
2023/01/02 05:56:52;;;;;;;;;;;;;;;29.76;58.77;101134.25;5056944;28;65887;-34
2023/01/02 05:59:23;;;;;;;;;;;;;;;29.89;58.27;101156.94;5055180;28;70563;-34
2023/01/02 06:01:54;;;;;;;;;;;;;;;29.82;57.36;101138.00;5050750;28;66908;-33
2023/01/02 06:04:25;;;;;;;;;;;;;;;29.74;56.79;101136.34;5053888;28;70706;-38
2023/01/02 06:06:55;;;;;;;;;;;;;;;29.72;56.39;101133.00;5051454;27;66082;-35
2023/01/02 06:09:26;;;;;;;;;;;;;;;29.64;55.63;101125.06;5054177;28;70259;-35
2023/01/02 06:11:57;;;;;;;;;;;;;;;29.61;55.26;101128.16;5054448;28;66094;-35
2023/01/02 06:14:28;;;;;;;;;;;;;;;29.59;54.51;101127.56;5051428;28;70422;-37
2023/01/02 06:16:59;;;;;;;;;;;;;;;29.56;53.79;101122.53;5048392;28;65847;-38
2023/01/02 06:19:29;;;;;;;;;;;;;;;29.51;53.35;101119.66;5053585;28;70146;-37
2023/01/02 06:22:00;;;;;;;;;;;;;;;29.48;52.61;101114.66;5053900;28;65397;-38
2023/01/02 06:24:31;;;;;;;;;;;;;;;29.45;52.20;101104.22;5050002;28;70501;-37
2023/01/02 06:27:02;;;;;;;;;;;;;;;29.44;51.99;101097.16;5051516;28;66392;-38
2023/01/02 06:29:33;;;;;;;;;;;;;;;29.40;51.17;101092.19;5050928;28;68865;-35
2023/01/02 06:32:04;;;;;;;;;;;;;;;29.37;50.91;101081.78;5049921;28;67108;-36
2023/01/02 06:34:35;;;;;;;;;;;;;;;29.36;50.67;101080.13;5047676;28;68813;-35
2023/01/02 06:37:06;;;;;;;;;;;;;;;29.35;50.12;101070.34;5038458;28;66008;-36
2023/01/02 06:39:38;;;;;;;;;;;;;;;29.44;50.65;101075.53;5048557;28;70820;-36
2023/01/02 06:42:09;;;;;;;;;;;;;;;29.52;51.81;101061.84;5053294;28;66159;-36
2023/01/02 06:44:40;;;;;;;;;;;;;;;29.58;52.49;101055.59;5051881;28;71078;-34
2023/01/02 06:47:10;;;;;;;;;;;;;;;29.65;53.13;101045.66;5053798;28;65864;-36
2023/01/02 06:49:41;;;;;;;;;;;;;;;29.74;53.06;101039.00;5047521;28;70139;-36
2023/01/02 06:52:12;;;;;;;;;;;;;;;29.82;53.51;101041.50;5048000;28;65404;-35
2023/01/02 06:54:42;;;;;;;;;;;;;;;29.89;53.78;101030.66;5049711;28;70606;-34
2023/01/02 06:57:13;;;;;;;;;;;;;;;29.97;53.76;101032.31;5054212;28;66153;-34
2023/01/02 06:59:43;;;;;;;;;;;;;;;29.98;54.64;101029.41;5050510;28;70664;-38
2023/01/02 07:02:15;;;;;;;;;;;;;;;30.04;54.32;101027.72;5052320;28;67312;-35
2023/01/02 07:04:46;;;;;;;;;;;;;;;30.07;54.96;101027.31;5055802;28;70664;-35
2023/01/02 07:07:17;;;;;;;;;;;;;;;30.12;55.18;101023.97;5049576;28;65135;-38
2023/01/02 07:09:48;;;;;;;;;;;;;;;30.18;54.77;101029.34;5049829;28;70098;-35
2023/01/02 07:12:18;;;;;;;;;;;;;;;30.20;55.55;101023.72;5054054;28;65439;-37
2023/01/02 07:14:49;;;;;;;;;;;;;;;30.23;55.60;101016.06;5047039;28;70496;-37
2023/01/02 07:17:20;;;;;;;;;;;;;;;30.27;56.00;101001.06;5057596;28;66814;-34
2023/01/02 07:19:50;;;;;;;;;;;;;;;30.30;56.34;101004.38;5054891;28;70441;-37
2023/01/02 07:22:24;;;;;;;;;;;;;;;30.32;56.96;101007.72;5047546;28;66193;-36
2023/01/02 07:24:55;;;;;;;;;;;;;;;30.38;56.67;101001.44;5046959;28;69479;-36
2023/01/02 07:27:28;;;;;;;;;;;;;;;30.42;56.81;100997.25;5052478;28;66128;-35
2023/01/02 07:29:58;;;;;;;;;;;;;;;30.47;57.49;100994.72;5052052;28;70540;-37
2023/01/02 07:32:30;;;;;;;;;;;;;;;30.44;57.65;100984.34;5049259;28;65382;-36
2023/01/02 07:35:00;;;;;;;;;;;;;;;30.54;57.65;100984.72;5052089;28;69848;-37
2023/01/02 07:37:31;;;;;;;;;;;;;;;30.56;57.76;100988.00;5049867;28;65645;-36
2023/01/02 07:40:02;;;;;;;;;;;;;;;30.58;57.73;100975.09;5051360;28;69384;-38
2023/01/02 07:42:34;;;;;;;;;;;;;;;30.59;57.96;100971.38;5049567;28;66394;-38
2023/01/02 07:45:05;;;;;;;;;;;;;;;30.61;58.17;100968.44;5050396;28;69856;-38
2023/01/02 07:47:36;;;;;;;;;;;;;;;30.64;57.93;100963.41;5053013;28;67107;-37
2023/01/02 07:50:06;;;;;;;;;;;;;;;30.68;58.08;100963.81;5050250;28;70223;-34
2023/01/02 07:52:37;;;;;;;;;;;;;;;30.73;57.95;100958.59;5045986;28;66492;-37
2023/01/02 07:55:08;;;;;;;;;;;;;;;30.76;57.74;100949.16;5055316;28;70280;-37
2023/01/02 07:57:39;;;;;;;;;;;;;;;30.80;57.65;100945.03;5050762;28;67601;-37
2023/01/02 08:00:11;;;;;;;;;;;;;;;30.84;57.77;100948.94;5047326;28;70505;-41
2023/01/02 08:02:42;;;;;;;;;;;;;;;30.87;58.23;100940.38;5051290;28;65476;-35
2023/01/02 08:05:12;;;;;;;;;;;;;;;30.91;58.50;100930.78;5051959;28;69286;-36
2023/01/02 08:07:44;;;;;;;;;;;;;;;30.91;58.06;100926.19;5047233;28;66356;-38
2023/01/02 08:10:14;;;;;;;;;;;;;;;30.96;58.12;100927.41;5052316;28;69746;-35
2023/01/02 08:12:45;;;;;;;;;;;;;;;31.02;58.05;100929.25;5049503;28;68163;-35
2023/01/02 08:15:16;;;;;;;;;;;;;;;31.04;57.77;100925.28;5046862;28;70310;-36
2023/01/02 08:17:47;;;;;;;;;;;;;;;31.05;58.05;100929.63;5050607;28;67061;-36
2023/01/02 08:20:17;;;;;;;;;;;;;;;31.07;58.18;100930.25;5050647;28;71603;-38
2023/01/02 08:22:48;;;;;;;;;;;;;;;31.06;58.57;100928.56;5048446;28;66821;-40
2023/01/02 08:25:19;;;;;;;;;;;;;;;31.04;59.10;100930.69;5049045;28;69242;-38
2023/01/02 08:27:50;;;;;;;;;;;;;;;31.09;59.46;100930.88;5052868;28;65691;-37
2023/01/02 08:30:21;;;;;;;;;;;;;;;31.04;60.50;100933.41;5048893;28;69876;-39
2023/01/02 08:32:51;;;;;;;;;;;;;;;31.04;60.61;100941.53;5048456;28;66383;-38
2023/01/02 08:35:22;;;;;;;;;;;;;;;31.05;60.95;100943.16;5047452;28;70275;-39
2023/01/02 08:38:05;;;;;;;;;;;;;;;31.07;60.54;100948.38;5044277;28;66616;-38
2023/01/02 08:40:36;;;;;;;;;;;;;;;31.06;60.87;100950.25;5048267;28;69807;-36
2023/01/02 08:43:07;;;;;;;;;;;;;;;31.05;60.98;100948.59;5047164;28;65952;-36
2023/01/02 08:45:38;;;;;;;;;;;;;;;31.09;59.83;100939.00;5050711;28;70750;-35
2023/01/02 08:48:08;;;;;;;;;;;;;;;30.89;58.42;100924.75;5047136;28;65902;-38
2023/01/02 08:50:49;;;;;;;;;;;;;;;31.11;58.69;100953.13;5048140;28;70698;-35
2023/01/02 08:53:20;;;;;;;;;;;;;;;31.21;58.66;100968.09;5049817;28;66142;-36
2023/01/02 08:55:51;;;;;;;;;;;;;;;31.24;58.97;100957.63;5052164;28;70337;-37
2023/01/02 08:58:21;;;;;;;;;;;;;;;31.23;59.20;100955.97;5046227;28;66094;-39
2023/01/02 09:00:52;;;;;;;;;;;;;;;31.23;59.49;100950.56;5045967;28;69292;-35
2023/01/02 09:03:22;;;;;;;;;;;;;;;31.27;59.58;100956.34;5042983;28;66033;-37
2023/01/02 09:05:54;;;;;;;;;;;;;;;31.26;59.54;100954.66;5043687;28;70267;-36
2023/01/02 09:08:25;;;;;;;;;;;;;;;31.26;59.29;100962.81;5047090;28;67711;-40
2023/01/02 09:10:56;;;;;;;;;;;;;;;31.29;59.52;100959.69;5049810;28;69479;-36
2023/01/02 09:13:26;;;;;;;;;;;;;;;31.22;59.31;100953.47;5050462;28;65937;-37
2023/01/02 09:15:58;;;;;;;;;;;;;;;31.22;59.96;100961.59;5042268;28;70098;-40
2023/01/02 09:18:29;;;;;;;;;;;;;;;31.17;60.17;100957.69;5048005;28;67825;-38
2023/01/02 09:33:57;;;;;;;;;;;;;;;31.30;58.58;101010.09;5045622;28;66441;-34
2023/01/02 09:36:31;;;;;;;;;;;;;;;31.22;59.14;101018.50;5042336;28;69903;-36
2023/01/02 09:39:03;;;;;;;;;;;;;;;31.10;59.07;101026.50;5052414;28;65620;-38
2023/01/02 09:41:41;;;;;;;;;;;;;;;30.98;60.11;101026.38;5042072;28;70550;-38
2023/01/02 09:44:20;;;;;;;;;;;;;;;30.88;59.49;101018.72;5054000;28;66048;-34
2023/01/02 09:47:00;;;;;;;;;;;;;;;30.72;60.08;101022.72;5045115;28;70734;-40
2023/01/02 09:49:39;;;;;;;;;;;;;;;30.79;61.29;101016.47;5050191;28;66386;-38
2023/01/02 09:52:22;;;;;;;;;;;;;;;30.78;62.98;101022.91;5051378;28;69920;-42
2023/01/02 09:54:54;;;;;;;;;;;;;;;30.84;62.75;101027.47;5052594;28;65611;-37
2023/01/02 09:57:28;;;;;;;;;;;;;;;30.84;63.91;101032.91;5046129;28;70391;-37
2023/01/02 10:00:18;;;;;;;;;;;;;;;30.85;64.16;101048.13;5053926;28;66654;-40
2023/01/02 10:03:07;;;;;;;;;;;;;;;30.86;64.65;101068.72;5055412;28;70479;-38
2023/01/02 10:05:40;;;;;;;;;;;;;;;30.82;66.53;101089.19;5052323;28;65685;-37
2023/01/02 10:08:40;;;;;;;;;;;;;;;30.63;69.24;101107.13;5055737;28;71122;-42
2023/01/02 10:11:23;;;;;;;;;;;;;;;30.57;70.15;101100.69;5039507;28;66125;-41
2023/01/02 10:14:08;;;;;;;;;;;;;;;30.44;65.12;101098.00;5055041;28;69430;-41
2023/01/02 10:16:50;;;;;;;;;;;;;;;30.22;59.04;101109.09;5056508;28;65566;-40
2023/01/02 10:19:27;;;;;;;;;;;;;;;30.02;56.59;101110.97;5048942;28;70419;-41
2023/01/02 10:22:01;;;;;;;;;;;;;;;29.84;55.30;101107.03;5057403;28;66689;-42
2023/01/02 10:24:36;;;;;;;;;;;;;;;29.69;54.51;101114.47;5054498;28;70027;-42
2023/01/02 10:27:11;;;;;;;;;;;;;;;29.55;54.24;101113.59;5057614;28;65804;-40
2023/01/02 10:29:48;;;;;;;;;;;;;;;29.46;53.39;101116.72;5057152;28;69994;-37
2023/01/02 10:32:20;;;;;;;;;;;;;;;29.32;53.51;101111.28;5049072;28;66929;-37
2023/01/02 10:34:57;;;;;;;;;;;;;;;29.20;53.36;101128.28;5056083;28;70278;-38
2023/01/02 10:37:31;;;;;;;;;;;;;;;29.12;52.24;101132.00;5051513;28;65556;-41
2023/01/02 10:40:03;;;;;;;;;;;;;;;29.06;53.24;101119.28;5053790;28;69178;-38
2023/01/02 10:42:35;;;;;;;;;;;;;;;28.97;55.41;101121.31;5059375;28;66202;-38
2023/01/02 10:45:15;;;;;;;;;;;;;;;28.90;56.28;101121.28;5054522;28;70251;-41
2023/01/02 10:47:49;;;;;;;;;;;;;;;28.86;57.63;101128.16;5051444;28;66394;-37
2023/01/02 10:50:22;;;;;;;;;;;;;;;28.78;58.39;101139.09;5058854;28;70430;-38
2023/01/02 10:53:04;;;;;;;;;;;;;;;28.84;59.21;101130.19;5058793;28;65555;-38
2023/01/02 10:55:40;;;;;;;;;;;;;;;28.94;58.88;101124.41;5055067;28;69734;-38
2023/01/02 10:58:16;;;;;;;;;;;;;;;28.98;59.06;101124.88;5056950;28;66887;-39
2023/01/02 11:00:50;;;;;;;;;;;;;;;29.01;59.16;101119.88;5061371;27;70031;-39
2023/01/02 11:03:22;;;;;;;;;;;;;;;29.04;59.01;101130.31;5046442;28;66808;-40
2023/01/02 11:05:56;;;;;;;;;;;;;;;29.03;59.10;101127.78;5057734;28;70826;-37
2023/01/02 11:08:57;;;;;;;;;;;;;;;29.05;59.38;101128.44;5058919;28;66684;-38
2023/01/02 11:11:29;;;;;;;;;;;;;;;28.90;58.58;101106.97;5065617;27;68785;-43
2023/01/02 11:14:06;;;;;;;;;;;;;;;29.04;58.65;101140.28;5049863;28;66037;-36
2023/01/02 11:16:43;;;;;;;;;;;;;;;29.01;59.02;101137.97;5059856;28;70448;-37
2023/01/02 11:19:22;;;;;;;;;;;;;;;29.01;58.71;101146.06;5056039;28;67077;-35
2023/01/02 11:21:58;;;;;;;;;;;;;;;29.01;59.35;101146.06;5053995;28;69419;-37
2023/01/02 11:24:34;;;;;;;;;;;;;;;29.00;58.91;101150.59;5055439;28;67092;-37
2023/01/02 11:27:10;;;;;;;;;;;;;;;29.09;60.78;101151.31;5057617;28;69967;-37
2023/01/02 11:29:45;;;;;;;;;;;;;;;29.19;61.93;101154.47;5050573;28;66081;-38
2023/01/02 11:32:25;;;;;;;;;;;;;;;29.31;62.03;101160.97;5040599;28;70162;-40
2023/01/02 11:34:58;;;;;;;;;;;;;;;29.39;61.98;101168.03;5052464;28;66708;-41
2023/01/02 11:37:30;;;;;;;;;;;;;;;29.45;62.59;101167.25;5048187;28;70815;-40
2023/01/02 11:40:06;;;;;;;;;;;;;;;29.51;62.30;101168.28;5053540;28;65286;-37
2023/01/02 11:45:35;;;;;;;;;;;;;;;29.61;65.32;101171.41;5051015;28;66634;-38
2023/01/02 11:48:13;;;;;;;;;;;;;;;29.67;63.38;101167.94;5047606;28;70872;-38
2023/01/02 11:50:48;;;;;;;;;;;;;;;29.71;64.48;101176.47;5039267;28;66949;-39
2023/01/02 11:53:38;;;;;;;;;;;;;;;29.74;64.54;101174.19;5054010;28;70634;-40
2023/01/02 11:56:29;;;;;;;;;;;;;;;29.78;64.39;101175.44;5041716;28;65654;-38
2023/01/02 11:59:13;;;;;;;;;;;;;;;29.83;64.96;101177.53;5055200;28;70590;-40
2023/01/02 12:01:54;;;;;;;;;;;;;;;29.91;68.96;101185.44;5050942;28;65910;-42
2023/01/02 12:04:31;;;;;;;;;;;;;;;29.93;68.17;101185.25;5052032;28;69742;-40
2023/01/02 12:07:10;;;;;;;;;;;;;;;29.96;67.45;101187.53;5049139;28;67065;-39
2023/01/02 12:10:01;;;;;;;;;;;;;;;29.97;66.79;101192.72;5049684;28;70065;-37
2023/01/02 12:12:51;;;;;;;;;;;;;;;30.01;66.68;101202.09;5043415;28;66379;-40
2023/01/02 12:15:28;;;;;;;;;;;;;;;30.04;67.18;101195.44;5045892;28;69904;-42
2023/01/02 12:18:15;;;;;;;;;;;;;;;30.10;66.44;101204.59;5053870;28;66416;-40
2023/01/02 12:21:16;;;;;;;;;;;;;;;30.31;66.65;101206.28;5053295;28;70300;-42
2023/01/02 12:24:08;;;;;;;;;;;;;;;30.35;66.92;101207.56;5011935;28;66639;-41
2023/01/02 12:26:56;;;;;;;;;;;;;;;30.33;67.37;101204.22;5063708;27;69984;-38
2023/01/02 12:29:36;;;;;;;;;;;;;;;30.30;67.76;101199.22;5052537;28;66239;-41
2023/01/02 12:32:37;;;;;;;;;;;;;;;30.24;68.52;101201.72;5056574;28;70597;-40
2023/01/02 12:35:26;;;;;;;;;;;;;;;30.24;68.92;101201.72;5052281;28;65897;-43
2023/01/02 12:38:04;;;;;;;;;;;;;;;30.25;68.22;101206.06;5033915;28;70084;-41
2023/01/02 12:40:55;;;;;;;;;;;;;;;30.20;69.03;101205.88;5052646;28;66465;-38
2023/01/02 12:43:31;;;;;;;;;;;;;;;30.04;66.94;101211.69;5047087;28;70510;-41
2023/01/02 12:46:37;;;;;;;;;;;;;;;29.87;62.87;101215.81;5055122;27;65666;-37
2023/01/02 12:49:29;;;;;;;;;;;;;;;29.65;60.12;101213.28;5047510;28;70273;-37
2023/01/02 12:52:39;;;;;;;;;;;;;;;29.45;58.01;101217.72;5051899;28;65915;-39
2023/01/02 12:55:37;;;;;;;;;;;;;;;29.19;56.01;101213.91;5053190;28;70469;-37
2023/01/02 12:58:26;;;;;;;;;;;;;;;29.05;54.73;101217.56;5045251;28;65480;-41
2023/01/02 13:01:43;;;;;;;;;;;;;;;28.88;54.07;101217.84;5049136;28;69029;-38
2023/01/02 13:04:34;;;;;;;;;;;;;;;28.72;52.85;101228.97;5015941;28;65619;-41
2023/01/02 13:07:24;;;;;;;;;;;;;;;28.65;52.16;101228.09;5015591;28;70816;-40
2023/01/02 13:10:04;;;;;;;;;;;;;;;28.59;51.38;101228.91;5021633;28;66205;-40
2023/01/02 13:12:59;;;;;;;;;;;;;;;28.49;50.63;101234.63;5030165;28;70737;-38
2023/01/02 13:15:36;;;;;;;;;;;;;;;28.43;49.92;101247.03;5029756;28;65557;-36
2023/01/02 13:18:30;;;;;;;;;;;;;;;28.40;49.21;101243.88;5050977;28;70402;-38
2023/01/02 13:21:19;;;;;;;;;;;;;;;28.39;49.10;101239.47;5050604;28;65941;-41
2023/01/02 13:24:06;;;;;;;;;;;;;;;28.33;48.73;101246.50;5066217;27;69206;-37
2023/01/02 13:26:48;;;;;;;;;;;;;;;28.26;49.28;101256.41;5053371;27;66910;-39
2023/01/02 13:29:35;;;;;;;;;;;;;;;28.28;49.65;101257.88;5053344;28;70286;-42
2023/01/02 13:32:25;;;;;;;;;;;;;;;28.37;50.43;101263.16;5049982;28;66599;-40
2023/01/02 13:35:07;;;;;;;;;;;;;;;28.42;51.15;101260.72;5048749;28;69797;-41
2023/01/02 13:38:06;;;;;;;;;;;;;;;28.46;50.62;101262.84;5046609;28;66046;-38